Weather at Flugplatz Dauborn

Public forecast

Using degrees Celsius for public forecast. Weather courtesy of forecast.io.

Closest aviation weather report (METAR) to Flugplatz Dauborn

Report is more than 6 hours old.

Closest report is Wiesbaden Army Airfield, 17.1 nm (31.6 km) SSE. Retrieved 2022/09/17 18:55 UTC (19 days ago):

ETOU 171855Z AUTO 28010KT 9999 FEW120 10/08 A2998 RMK AO2 SLP157 T01010075

Closest aviation forecast (TAF) to Flugplatz Dauborn

Forecast is more than 12 hours old.

Closest forecast is Wiesbaden Army Airfield, 17.1 nm (31.6 km) SSE. Retrieved 2022/09/17 12:00 UTC (19 days ago):

TAF TAF ETOU 171200Z 1712/1818 30015G25KT 9999 SCT030 BKN040 QNH2985INS TEMPO 1712/1714 9000 -SHRA BECMG 1716/1717 30012KT 9999 SCT030 QNH2988INS BECMG 1802/1803 29010G20KT 9999 SCT015 BKN030 QNH2991INS BECMG 1809/1810 26010G25KT 9000 -SHRA SCT010 BKN025 QNH2991INS TX15/1712Z TN10/1804Z